createdAt,value
2019-04-29T00:02:22.976Z,17.10
2019-04-29T00:04:52.275Z,15.63
2019-04-29T00:07:21.590Z,24.23
2019-04-29T00:09:50.905Z,18.60
2019-04-29T00:12:20.878Z,16.40
2019-04-29T00:15:03.945Z,18.87
2019-04-29T00:17:34.913Z,16.20
2019-04-29T00:20:09.634Z,19.43
2019-04-29T00:22:38.954Z,19.13
2019-04-29T00:25:08.322Z,16.90
2019-04-29T00:27:37.655Z,18.77
2019-04-29T00:30:09.142Z,15.63
2019-04-29T00:32:38.517Z,14.80
2019-04-29T00:35:07.985Z,17.50
2019-04-29T00:37:41.804Z,21.67
2019-04-29T00:40:12.897Z,20.97
2019-04-29T00:42:49.612Z,20.53
2019-04-29T00:45:18.921Z,21.33
2019-04-29T00:47:48.233Z,19.93
2019-04-29T00:50:17.539Z,18.53
2019-04-29T00:52:46.888Z,20.70
2019-04-29T00:55:17.843Z,21.23
2019-04-29T00:57:47.173Z,19.80
2019-04-29T01:00:28.649Z,19.27
2019-04-29T01:02:57.977Z,24.73
2019-04-29T01:05:28.706Z,20.00
2019-04-29T01:07:58.049Z,20.03
2019-04-29T01:10:27.374Z,21.97
2019-04-29T01:12:56.702Z,20.50
2019-04-29T01:15:26.030Z,22.70
2019-04-29T01:17:55.552Z,23.23
2019-04-29T01:20:24.853Z,25.87
2019-04-29T01:22:54.644Z,20.90
2019-04-29T01:25:23.944Z,20.40
2019-04-29T01:28:00.691Z,19.90
2019-04-29T01:30:55.767Z,19.10
2019-04-29T01:33:25.082Z,19.47
2019-04-29T01:36:12.408Z,21.30
2019-04-29T01:38:41.727Z,24.77
2019-04-29T01:41:18.457Z,22.43
2019-04-29T01:44:01.308Z,21.90
2019-04-29T01:46:30.621Z,20.83
2019-04-29T01:49:00.010Z,19.33
2019-04-29T01:51:29.454Z,22.60
2019-04-29T01:53:58.772Z,19.93
2019-04-29T01:56:28.075Z,20.30
2019-04-29T01:58:58.471Z,20.83
2019-04-29T02:01:27.781Z,20.90
2019-04-29T02:03:57.096Z,22.60
2019-04-29T02:06:26.410Z,23.47
2019-04-29T02:08:57.270Z,20.73
2019-04-29T02:11:26.655Z,18.03
2019-04-29T02:13:55.967Z,22.53
2019-04-29T02:16:25.285Z,18.50
2019-04-29T02:18:54.616Z,19.07
2019-04-29T02:21:23.935Z,20.40
2019-04-29T02:24:00.677Z,21.13
2019-04-29T02:26:30.012Z,21.20
2019-04-29T02:28:59.338Z,21.33
2019-04-29T02:31:42.357Z,20.27
2019-04-29T02:34:11.691Z,19.10
2019-04-29T02:36:41.082Z,24.03
2019-04-29T02:39:17.042Z,19.37
2019-04-29T02:41:59.955Z,23.47
2019-04-29T02:44:29.287Z,22.43
2019-04-29T02:46:58.586Z,21.70
2019-04-29T02:49:27.909Z,25.43
2019-04-29T02:51:57.220Z,21.10
2019-04-29T02:54:28.410Z,23.27
2019-04-29T02:56:59.348Z,29.33
2019-04-29T02:59:33.295Z,25.10
2019-04-29T03:02:17.586Z,26.23
2019-04-29T03:04:51.510Z,23.87
2019-04-29T03:07:21.499Z,24.03
2019-04-29T03:09:51.056Z,22.37
2019-04-29T03:12:20.364Z,24.20
2019-04-29T03:14:49.700Z,21.50
2019-04-29T03:17:19.426Z,25.10
2019-04-29T03:20:07.340Z,24.87
2019-04-29T03:22:38.657Z,22.50
2019-04-29T03:25:08.055Z,25.23
2019-04-29T03:27:37.375Z,36.60
2019-04-29T03:30:08.132Z,23.57
2019-04-29T03:32:37.466Z,26.53
2019-04-29T03:35:07.277Z,27.17
2019-04-29T03:37:37.566Z,22.43
2019-04-29T03:40:07.021Z,23.50
2019-04-29T03:42:36.329Z,22.67
2019-04-29T03:45:08.708Z,22.07
2019-04-29T03:47:38.029Z,19.00
2019-04-29T03:50:07.421Z,25.87
2019-04-29T03:52:36.738Z,21.10
2019-04-29T03:55:06.999Z,23.77
2019-04-29T03:57:37.425Z,25.43
2019-04-29T04:00:12.360Z,24.63
2019-04-29T04:02:55.500Z,25.00
2019-04-29T04:05:38.679Z,22.57
2019-04-29T04:08:09.629Z,23.70
2019-04-29T04:10:38.948Z,26.27
2019-04-29T04:13:08.264Z,28.93
2019-04-29T04:15:37.595Z,25.47
2019-04-29T04:18:11.444Z,24.60
2019-04-29T04:20:40.783Z,24.53
2019-04-29T04:23:10.243Z,24.83
2019-04-29T04:25:39.570Z,27.80
2019-04-29T04:28:08.870Z,27.13
2019-04-29T04:30:38.569Z,30.00
2019-04-29T04:33:07.877Z,29.73
2019-04-29T04:35:37.207Z,27.93
2019-04-29T04:38:06.585Z,29.13
2019-04-29T04:40:46.377Z,27.10
2019-04-29T04:43:15.701Z,28.33
2019-04-29T04:45:45.038Z,30.63
2019-04-29T04:48:14.426Z,31.23
2019-04-29T04:50:43.817Z,27.50
2019-04-29T04:53:13.120Z,24.63
2019-04-29T04:55:43.718Z,28.30
2019-04-29T04:58:13.025Z,28.63
2019-04-29T05:00:42.365Z,28.77
2019-04-29T05:03:11.671Z,28.23
2019-04-29T05:05:42.699Z,24.87
2019-04-29T05:08:12.004Z,30.10
2019-04-29T05:10:41.318Z,29.33
2019-04-29T05:13:10.635Z,25.63
2019-04-29T05:15:39.962Z,31.10
2019-04-29T05:18:09.276Z,27.47
2019-04-29T05:20:38.595Z,28.97
2019-04-29T05:23:07.913Z,30.73
2019-04-29T05:25:37.229Z,27.27
2019-04-29T05:28:06.718Z,27.90
2019-04-29T05:30:36.034Z,25.80
2019-04-29T05:33:05.393Z,34.57
2019-04-29T05:35:40.335Z,30.17
2019-04-29T05:38:17.451Z,31.93
2019-04-29T05:40:48.418Z,26.57
2019-04-29T05:43:21.028Z,27.87
2019-04-29T05:46:08.191Z,26.20
2019-04-29T05:48:40.383Z,27.60
2019-04-29T05:53:57.672Z,26.83
2019-04-29T05:56:27.063Z,31.10
2019-04-29T05:58:58.868Z,31.10
2019-04-29T06:01:29.856Z,31.77
2019-04-29T06:04:00.796Z,33.17
2019-04-29T06:06:31.262Z,31.60
2019-04-29T06:09:00.851Z,35.90
2019-04-29T06:11:35.057Z,30.13
2019-04-29T06:14:15.357Z,32.83
2019-04-29T06:16:44.689Z,32.70
2019-04-29T06:19:14.007Z,35.27
2019-04-29T06:21:43.326Z,33.00
2019-04-29T06:24:12.628Z,32.17
2019-04-29T06:26:43.611Z,33.43
2019-04-29T06:29:12.943Z,32.23
2019-04-29T06:31:42.274Z,28.60
2019-04-29T06:34:11.594Z,31.57
2019-04-29T06:36:40.887Z,29.63
2019-04-29T06:39:10.291Z,29.70
2019-04-29T06:41:40.690Z,36.33
2019-04-29T06:44:15.997Z,32.17
2019-04-29T06:46:41.721Z,34.37
2019-04-29T06:49:11.077Z,31.10
2019-04-29T06:51:40.437Z,32.90
2019-04-29T06:54:09.752Z,32.53
2019-04-29T06:56:39.082Z,30.60
2019-04-29T06:59:11.976Z,32.17
2019-04-29T07:01:39.420Z,27.30
2019-04-29T07:04:08.745Z,25.80
2019-04-29T07:06:38.073Z,24.17
2019-04-29T07:09:07.761Z,25.53
2019-04-29T07:11:38.424Z,24.27
2019-04-29T07:14:07.944Z,25.93
2019-04-29T07:16:37.279Z,23.17
2019-04-29T07:19:06.602Z,22.50
2019-04-29T07:21:35.918Z,24.00
2019-04-29T07:24:06.309Z,23.30
2019-04-29T07:26:35.652Z,25.23
2019-04-29T07:29:04.971Z,21.50
2019-04-29T07:31:35.200Z,23.70
2019-04-29T07:34:04.601Z,23.40
2019-04-29T07:36:33.900Z,22.03
2019-04-29T07:39:06.258Z,22.13
2019-04-29T07:41:36.067Z,19.80
2019-04-29T07:44:06.298Z,19.43
2019-04-29T07:46:56.111Z,18.00
2019-04-29T07:49:17.199Z,15.73
2019-04-29T07:51:44.984Z,12.10
2019-04-29T07:54:15.858Z,9.70
2019-04-29T07:56:45.320Z,11.83
2019-04-29T07:59:14.672Z,10.60
2019-04-29T08:01:43.979Z,9.87
2019-04-29T08:04:13.303Z,12.00
2019-04-29T08:06:44.781Z,14.23
2019-04-29T08:09:15.023Z,10.73
2019-04-29T08:11:44.508Z,10.07
2019-04-29T08:14:14.380Z,11.67
2019-04-29T08:16:43.692Z,12.63
2019-04-29T08:19:13.013Z,11.20
2019-04-29T08:21:45.427Z,10.50
2019-04-29T08:24:16.165Z,12.67
2019-04-29T08:26:47.669Z,11.23
2019-04-29T08:29:17.438Z,14.67
2019-04-29T08:31:46.748Z,14.37
2019-04-29T08:34:18.719Z,14.13
2019-04-29T08:36:49.174Z,12.97
2019-04-29T08:39:18.491Z,16.57
2019-04-29T08:41:47.798Z,15.17
2019-04-29T08:44:28.044Z,11.27
2019-04-29T08:47:05.018Z,11.87
2019-04-29T08:49:34.344Z,10.73
2019-04-29T08:52:03.820Z,9.97
2019-04-29T08:54:33.160Z,12.83
2019-04-29T08:57:04.243Z,8.33
2019-04-29T08:59:33.471Z,10.33
2019-04-29T09:02:05.304Z,5.93
2019-04-29T09:04:35.309Z,7.70
2019-04-29T09:07:12.402Z,5.03
2019-04-29T09:09:35.979Z,7.00
2019-04-29T09:12:05.299Z,7.63
2019-04-29T09:14:34.626Z,6.17
2019-04-29T09:17:08.991Z,7.80
2019-04-29T09:19:35.776Z,5.30
2019-04-29T09:22:06.797Z,7.37
2019-04-29T09:24:37.748Z,6.23
2019-04-29T09:27:14.657Z,4.57
2019-04-29T09:29:46.469Z,7.37
2019-04-29T09:32:15.935Z,5.90
2019-04-29T09:34:45.347Z,5.63
2019-04-29T09:37:14.662Z,6.43
2019-04-29T09:39:45.627Z,6.87
2019-04-29T09:42:16.573Z,6.67
2019-04-29T09:44:48.532Z,10.10
2019-04-29T09:47:17.850Z,7.47
2019-04-29T09:49:47.161Z,9.33
2019-04-29T09:52:16.480Z,8.90
2019-04-29T09:54:45.784Z,8.10
2019-04-29T09:57:15.091Z,7.57
2019-04-29T09:59:46.056Z,7.20
2019-04-29T10:02:17.163Z,8.00
2019-04-29T10:04:59.913Z,8.33
2019-04-29T10:07:29.364Z,8.13
2019-04-29T10:10:02.241Z,7.67
2019-04-29T10:12:30.801Z,12.57
2019-04-29T10:15:00.123Z,8.47
2019-04-29T10:17:50.810Z,9.60
2019-04-29T10:20:22.768Z,7.20
2019-04-29T10:22:53.742Z,9.00
2019-04-29T10:25:23.087Z,6.90
2019-04-29T10:27:52.391Z,7.43
2019-04-29T10:30:26.842Z,10.10
2019-04-29T10:32:54.367Z,8.27
2019-04-29T10:35:23.701Z,7.30
2019-04-29T10:37:53.067Z,8.90
2019-04-29T10:40:26.534Z,9.53
2019-04-29T10:42:57.701Z,10.30
2019-04-29T10:45:31.395Z,11.50
2019-04-29T10:48:11.200Z,12.00
2019-04-29T10:50:42.152Z,13.17
2019-04-29T10:53:15.666Z,11.33
2019-04-29T10:55:42.641Z,14.50
2019-04-29T10:58:12.329Z,18.60
2019-04-29T11:01:00.698Z,16.73
2019-04-29T11:03:30.091Z,21.70
2019-04-29T11:06:01.677Z,16.80
2019-04-29T11:08:33.878Z,16.33
2019-04-29T11:11:03.432Z,16.90
2019-04-29T11:13:32.879Z,22.03
2019-04-29T11:16:02.212Z,18.53
2019-04-29T11:18:31.535Z,16.87
2019-04-29T11:21:00.868Z,21.87
2019-04-29T11:23:31.889Z,19.20
2019-04-29T11:26:03.133Z,21.70
2019-04-29T11:28:32.900Z,23.37
2019-04-29T11:31:02.234Z,23.10
2019-04-29T11:33:49.086Z,20.43
2019-04-29T11:36:25.521Z,21.27
2019-04-29T11:38:55.204Z,23.17
2019-04-29T11:41:27.515Z,23.47
2019-04-29T11:43:56.829Z,23.67
2019-04-29T11:46:26.153Z,24.77
2019-04-29T11:48:57.116Z,28.00
2019-04-29T11:51:34.142Z,25.60
2019-04-29T11:54:02.009Z,24.90
2019-04-29T11:56:32.459Z,27.97
2019-04-29T11:59:09.329Z,22.90
2019-04-29T12:01:50.899Z,27.00
2019-04-29T12:04:28.612Z,24.70
2019-04-29T12:06:58.163Z,25.63
2019-04-29T12:09:30.483Z,27.37
2019-04-29T12:11:58.783Z,25.57
2019-04-29T12:14:48.216Z,30.10
2019-04-29T12:17:22.331Z,27.57
2019-04-29T12:19:53.279Z,29.23
2019-04-29T12:22:30.322Z,29.40
2019-04-29T12:24:53.628Z,26.50
2019-04-29T12:27:23.111Z,24.60
2019-04-29T12:29:54.327Z,29.53
2019-04-29T12:32:28.281Z,32.37
2019-04-29T12:34:59.246Z,27.53
2019-04-29T12:37:38.958Z,28.20
2019-04-29T12:40:19.335Z,27.47
2019-04-29T12:42:56.465Z,30.10
2019-04-29T12:45:45.592Z,27.33
2019-04-29T12:48:24.432Z,28.57
2019-04-29T12:50:51.118Z,28.27
2019-04-29T12:53:19.925Z,28.93
2019-04-29T12:55:53.501Z,28.67
2019-04-29T12:58:24.198Z,29.97
2019-04-29T13:00:59.743Z,26.67
2019-04-29T13:03:39.973Z,27.67
2019-04-29T13:06:12.466Z,27.73
2019-04-29T13:08:43.426Z,29.20
2019-04-29T13:11:14.647Z,28.77
2019-04-29T13:13:43.873Z,28.23
2019-04-29T13:16:29.868Z,31.17
2019-04-29T13:19:11.845Z,32.67
2019-04-29T13:21:39.548Z,27.53
2019-04-29T13:24:18.280Z,29.07
2019-04-29T13:26:42.579Z,28.90
2019-04-29T13:29:26.308Z,25.37
2019-04-29T13:31:43.693Z,28.83
2019-04-29T13:34:24.194Z,26.27
2019-04-29T13:37:06.170Z,28.63
2019-04-29T13:39:38.419Z,29.37
2019-04-29T13:42:02.869Z,31.43
2019-04-29T13:44:29.971Z,32.03
2019-04-29T13:47:06.704Z,28.47
2019-04-29T13:49:37.836Z,32.43
2019-04-29T13:52:07.286Z,30.17
2019-04-29T13:54:37.142Z,31.77
2019-04-29T13:57:15.325Z,32.13
2019-04-29T13:59:53.959Z,36.53
2019-04-29T14:02:31.303Z,30.63
2019-04-29T14:05:03.303Z,32.73
2019-04-29T14:07:32.706Z,31.37
2019-04-29T14:10:02.022Z,32.40
2019-04-29T14:12:53.084Z,36.77
2019-04-29T14:15:05.167Z,37.83
2019-04-29T14:17:35.731Z,31.73
2019-04-29T14:20:10.655Z,35.93
2019-04-29T14:22:41.013Z,34.23
2019-04-29T14:25:18.293Z,33.97
2019-04-29T14:27:47.672Z,31.23
2019-04-29T14:30:20.822Z,32.30
2019-04-29T14:33:02.073Z,35.33
2019-04-29T14:35:48.363Z,35.17
2019-04-29T14:38:24.431Z,36.10
2019-04-29T14:40:53.903Z,35.60
2019-04-29T14:43:37.089Z,39.23
2019-04-29T14:46:17.084Z,39.23
2019-04-29T14:48:59.427Z,37.07
2019-04-29T14:51:36.370Z,39.57
2019-04-29T14:54:05.623Z,41.90
2019-04-29T14:56:34.537Z,39.57
2019-04-29T14:59:06.900Z,34.60
2019-04-29T15:01:42.944Z,36.83
2019-04-29T15:04:18.235Z,36.07
2019-04-29T15:06:44.979Z,33.67
2019-04-29T15:09:17.989Z,32.90
2019-04-29T15:11:58.810Z,34.70
2019-04-29T15:17:21.052Z,31.53
2019-04-29T15:19:55.481Z,41.57
2019-04-29T15:22:24.857Z,43.47
2019-04-29T15:24:54.243Z,37.50
2019-04-29T15:27:23.568Z,35.23
2019-04-29T15:29:52.886Z,44.80
2019-04-29T15:32:23.767Z,35.17
2019-04-29T15:34:53.325Z,36.70
2019-04-29T15:37:22.662Z,34.93
2019-04-29T15:39:51.968Z,34.70
2019-04-29T15:42:21.303Z,35.67
2019-04-29T15:44:51.606Z,34.60
2019-04-29T15:47:21.688Z,38.23
2019-04-29T15:49:51.078Z,32.10
2019-04-29T15:52:21.018Z,34.47
2019-04-29T15:54:52.761Z,30.70
2019-04-29T15:57:23.200Z,34.03
2019-04-29T15:59:58.870Z,31.73
2019-04-29T16:02:23.556Z,30.20
2019-04-29T16:04:56.583Z,32.07
2019-04-29T16:07:31.145Z,35.57
2019-04-29T16:10:02.108Z,31.27
2019-04-29T16:12:45.478Z,30.57
2019-04-29T16:15:14.515Z,28.37
2019-04-29T16:17:44.794Z,36.50
2019-04-29T16:23:10.755Z,53.53
2019-04-29T16:29:15.542Z,29.80
2019-04-29T16:32:02.517Z,26.53
2019-04-29T16:40:33.858Z,37.97
2019-04-29T16:43:31.918Z,29.77
2019-04-29T16:46:02.707Z,27.00
2019-04-29T16:48:45.593Z,30.00
2019-04-29T16:51:16.627Z,29.47
2019-04-29T16:53:46.279Z,26.40
2019-04-29T16:56:16.206Z,26.03
2019-04-29T16:58:45.922Z,29.53
2019-04-29T17:01:15.320Z,31.87
2019-04-29T17:03:44.730Z,27.90
2019-04-29T17:06:15.033Z,26.23
2019-04-29T17:11:32.191Z,25.43
2019-04-29T17:14:03.514Z,25.57
2019-04-29T17:16:32.559Z,25.27
2019-04-29T17:19:03.273Z,26.13
2019-04-29T17:21:32.862Z,29.40
2019-04-29T17:24:02.178Z,24.93
2019-04-29T17:26:37.085Z,26.33
2019-04-29T17:32:02.018Z,30.80
2019-04-29T17:34:58.044Z,30.00
2019-04-29T17:35:14.558Z,26.13
2019-04-29T17:35:17.652Z,27.80
2019-04-29T17:37:08.585Z,25.47
2019-04-29T17:39:41.933Z,23.57
2019-04-29T17:42:17.047Z,26.13
2019-04-29T17:44:46.756Z,27.40
2019-04-29T17:47:33.984Z,32.27
2019-04-29T17:50:14.505Z,24.33
2019-04-29T17:52:43.873Z,24.83
2019-04-29T17:55:21.753Z,27.40
2019-04-29T17:57:55.707Z,27.03
2019-04-29T18:00:56.248Z,26.80
2019-04-29T18:03:42.709Z,23.47
2019-04-29T18:06:17.199Z,23.17
2019-04-29T18:08:46.518Z,26.33
2019-04-29T18:11:17.081Z,26.73
2019-04-29T18:13:46.407Z,25.40
2019-04-29T18:16:25.903Z,24.40
2019-04-29T18:19:00.352Z,27.90
2019-04-29T18:25:01.600Z,25.20
2019-04-29T18:27:59.945Z,27.37
2019-04-29T18:30:33.110Z,27.97
2019-04-29T18:32:58.826Z,30.83
2019-04-29T18:35:32.072Z,34.33
2019-04-29T18:38:13.418Z,30.57
2019-04-29T18:40:44.815Z,34.20
2019-04-29T18:43:19.146Z,33.47
2019-04-29T18:45:56.774Z,35.43
2019-04-29T18:48:26.860Z,37.63
2019-04-29T18:50:57.070Z,36.93
2019-04-29T18:53:27.728Z,38.23
2019-04-29T18:55:57.139Z,34.40
2019-04-29T18:58:26.453Z,42.77
2019-04-29T19:00:56.395Z,34.83
2019-04-29T19:03:34.201Z,38.33
2019-04-29T19:06:10.297Z,41.40
2019-04-29T19:08:36.174Z,37.87
2019-04-29T19:11:06.981Z,43.97
2019-04-29T19:13:37.424Z,42.33
2019-04-29T19:16:10.470Z,39.73
2019-04-29T19:18:38.764Z,42.20
2019-04-29T19:21:08.999Z,42.00
2019-04-29T19:23:38.312Z,40.57
2019-04-29T19:26:08.657Z,43.47
2019-04-29T19:28:37.983Z,43.00
2019-04-29T19:31:09.836Z,42.60
2019-04-29T19:33:42.026Z,49.03
2019-04-29T19:36:19.561Z,46.33
2019-04-29T19:38:47.390Z,48.43
2019-04-29T19:41:18.165Z,61.00
2019-04-29T19:43:55.045Z,56.73
2019-04-29T19:46:25.312Z,59.33
2019-04-29T19:48:58.297Z,61.13
2019-04-29T19:51:27.811Z,64.23
2019-04-29T19:53:57.191Z,67.97
2019-04-29T19:56:27.093Z,65.40
2019-04-29T19:58:58.063Z,65.50
2019-04-29T20:01:32.210Z,72.77
2019-04-29T20:04:06.371Z,70.90
2019-04-29T20:06:37.628Z,72.00
2019-04-29T20:09:14.661Z,71.50
2019-04-29T20:11:41.611Z,71.90
2019-04-29T20:14:19.278Z,68.23
2019-04-29T20:16:54.669Z,76.63
2019-04-29T20:19:27.400Z,71.87
2019-04-29T20:22:51.103Z,72.93
2019-04-29T20:25:06.134Z,73.10
2019-04-29T20:27:38.005Z,78.47
2019-04-29T20:30:16.582Z,77.30
2019-04-29T20:35:49.119Z,81.27
2019-04-29T20:38:34.990Z,80.40
2019-04-29T20:44:23.370Z,84.20
2019-04-29T20:47:14.235Z,80.63
2019-04-29T20:49:26.257Z,80.97
2019-04-29T20:51:59.088Z,84.90
2019-04-29T20:54:35.805Z,72.27
2019-04-29T20:57:12.645Z,79.47
2019-04-29T20:59:36.434Z,73.23
2019-04-29T21:02:12.768Z,77.43
2019-04-29T21:04:46.081Z,74.40
2019-04-29T21:07:09.616Z,76.60
2019-04-29T21:09:38.925Z,77.57
2019-04-29T21:12:09.883Z,81.20
2019-04-29T21:14:40.846Z,77.23
2019-04-29T21:17:11.160Z,74.87
2019-04-29T21:19:43.052Z,73.27
2019-04-29T21:22:18.385Z,77.40
2019-04-29T21:24:45.216Z,75.27
2019-04-29T21:27:17.701Z,72.37
2019-04-29T21:29:45.778Z,75.33
2019-04-29T21:32:15.698Z,71.53
2019-04-29T21:34:46.836Z,79.90
2019-04-29T21:37:20.701Z,75.80
2019-04-29T21:39:51.731Z,72.50
2019-04-29T21:42:29.788Z,74.43
2019-04-29T21:44:58.621Z,78.03
2019-04-29T21:47:29.452Z,80.00
2019-04-29T21:49:58.601Z,77.30
2019-04-29T21:52:28.006Z,76.57
2019-04-29T21:54:57.333Z,81.23
2019-04-29T21:57:27.640Z,74.77
2019-04-29T21:59:56.954Z,73.27
2019-04-29T22:02:26.348Z,79.77
2019-04-29T22:04:55.674Z,74.27
2019-04-29T22:07:25.811Z,76.13
2019-04-29T22:09:55.693Z,79.33
2019-04-29T22:12:25.163Z,82.97
2019-04-29T22:14:56.419Z,80.60
2019-04-29T22:17:32.701Z,76.90
2019-04-29T22:20:03.811Z,77.27
2019-04-29T22:22:30.641Z,83.53
2019-04-29T22:25:05.908Z,81.47
2019-04-29T22:27:34.118Z,83.10
2019-04-29T22:30:05.961Z,82.33
2019-04-29T22:32:37.125Z,84.07
2019-04-29T22:35:09.727Z,82.00
2019-04-29T22:37:39.052Z,80.10
2019-04-29T22:40:08.983Z,81.23
2019-04-29T22:42:52.203Z,85.23
2019-04-29T22:45:22.288Z,79.73
2019-04-29T22:47:54.358Z,86.47
2019-04-29T22:50:22.662Z,88.67
2019-04-29T22:52:51.986Z,86.23
2019-04-29T22:55:21.312Z,89.40
2019-04-29T22:57:50.625Z,91.30
2019-04-29T23:00:25.671Z,86.13
2019-04-29T23:02:52.723Z,82.50
2019-04-29T23:05:23.500Z,85.03
2019-04-29T23:07:57.080Z,76.57
2019-04-29T23:10:27.777Z,79.77
2019-04-29T23:12:57.429Z,82.83
2019-04-29T23:15:26.163Z,72.17
2019-04-29T23:17:55.477Z,77.43
2019-04-29T23:20:32.406Z,79.20
2019-04-29T23:23:05.252Z,76.03
2019-04-29T23:25:36.007Z,75.97
2019-04-29T23:28:05.432Z,73.20
2019-04-29T23:30:34.811Z,73.87
2019-04-29T23:33:04.301Z,72.07
2019-04-29T23:35:34.969Z,81.53
2019-04-29T23:38:09.203Z,76.97
2019-04-29T23:40:35.440Z,75.40
2019-04-29T23:43:06.132Z,71.53
2019-04-29T23:45:35.628Z,71.60
2019-04-29T23:48:05.659Z,82.03
2019-04-29T23:50:35.953Z,71.53
2019-04-29T23:53:05.820Z,74.10
2019-04-29T23:55:35.656Z,73.53
2019-04-29T23:58:24.728Z,75.33
